sensor_id;sensor_type;location;lat;lon;timestamp;temperature;humidity
20610;DHT22;10463;52.378;9.688;2023-05-10T00:00:55;27.70;21.60
20610;DHT22;10463;52.378;9.688;2023-05-10T00:03:41;27.70;21.60
20610;DHT22;10463;52.378;9.688;2023-05-10T00:06:26;27.70;21.60
20610;DHT22;10463;52.378;9.688;2023-05-10T00:09:11;27.70;21.60
20610;DHT22;10463;52.378;9.688;2023-05-10T00:11:56;27.70;21.60
20610;DHT22;10463;52.378;9.688;2023-05-10T00:14:44;27.70;21.60
20610;DHT22;10463;52.378;9.688;2023-05-10T00:17:30;27.70;21.50
20610;DHT22;10463;52.378;9.688;2023-05-10T00:20:15;27.70;21.50
20610;DHT22;10463;52.378;9.688;2023-05-10T00:23:00;27.70;21.50
20610;DHT22;10463;52.378;9.688;2023-05-10T00:25:45;27.70;21.50
20610;DHT22;10463;52.378;9.688;2023-05-10T00:28:29;27.70;21.50
20610;DHT22;10463;52.378;9.688;2023-05-10T00:31:16;27.70;21.50
20610;DHT22;10463;52.378;9.688;2023-05-10T00:34:01;27.70;21.50
20610;DHT22;10463;52.378;9.688;2023-05-10T00:36:46;27.70;21.50
20610;DHT22;10463;52.378;9.688;2023-05-10T00:39:31;27.70;21.50
20610;DHT22;10463;52.378;9.688;2023-05-10T00:42:15;27.70;21.50
20610;DHT22;10463;52.378;9.688;2023-05-10T00:45:00;27.70;21.40
20610;DHT22;10463;52.378;9.688;2023-05-10T00:47:47;27.70;21.40
20610;DHT22;10463;52.378;9.688;2023-05-10T00:50:33;27.70;21.40
20610;DHT22;10463;52.378;9.688;2023-05-10T00:53:18;27.70;21.40
20610;DHT22;10463;52.378;9.688;2023-05-10T00:56:03;27.70;21.40
20610;DHT22;10463;52.378;9.688;2023-05-10T00:58:48;27.70;21.40
20610;DHT22;10463;52.378;9.688;2023-05-10T01:01:33;27.70;21.40
20610;DHT22;10463;52.378;9.688;2023-05-10T01:04:20;27.70;21.40
20610;DHT22;10463;52.378;9.688;2023-05-10T01:07:09;27.60;21.30
20610;DHT22;10463;52.378;9.688;2023-05-10T01:09:55;27.70;21.40
20610;DHT22;10463;52.378;9.688;2023-05-10T01:12:43;27.60;21.30
20610;DHT22;10463;52.378;9.688;2023-05-10T01:15:29;27.70;21.40
20610;DHT22;10463;52.378;9.688;2023-05-10T01:18:14;27.60;21.30
20610;DHT22;10463;52.378;9.688;2023-05-10T01:21:15;27.60;21.30
20610;DHT22;10463;52.378;9.688;2023-05-10T01:24:31;27.60;21.30
20610;DHT22;10463;52.378;9.688;2023-05-10T01:28:24;27.60;21.30
20610;DHT22;10463;52.378;9.688;2023-05-10T01:31:28;27.60;21.30
20610;DHT22;10463;52.378;9.688;2023-05-10T01:34:23;27.60;21.30
20610;DHT22;10463;52.378;9.688;2023-05-10T01:37:12;27.60;21.30
20610;DHT22;10463;52.378;9.688;2023-05-10T01:40:05;27.60;21.30
20610;DHT22;10463;52.378;9.688;2023-05-10T01:42:55;27.60;21.30
20610;DHT22;10463;52.378;9.688;2023-05-10T01:45:54;27.60;21.30
20610;DHT22;10463;52.378;9.688;2023-05-10T01:48:48;27.50;21.20
20610;DHT22;10463;52.378;9.688;2023-05-10T01:51:44;27.50;21.30
20610;DHT22;10463;52.378;9.688;2023-05-10T01:54:33;27.50;21.30
20610;DHT22;10463;52.378;9.688;2023-05-10T01:57:19;27.50;21.30
20610;DHT22;10463;52.378;9.688;2023-05-10T02:00:07;27.50;21.30
20610;DHT22;10463;52.378;9.688;2023-05-10T02:03:06;27.50;21.30
20610;DHT22;10463;52.378;9.688;2023-05-10T02:05:54;27.50;21.30
20610;DHT22;10463;52.378;9.688;2023-05-10T02:08:41;27.50;21.30
20610;DHT22;10463;52.378;9.688;2023-05-10T02:11:28;27.50;21.80
20610;DHT22;10463;52.378;9.688;2023-05-10T02:14:14;27.50;21.30
20610;DHT22;10463;52.378;9.688;2023-05-10T02:17:02;27.50;21.30
20610;DHT22;10463;52.378;9.688;2023-05-10T02:19:49;27.50;21.30
20610;DHT22;10463;52.378;9.688;2023-05-10T02:22:35;27.50;21.30
20610;DHT22;10463;52.378;9.688;2023-05-10T02:25:23;27.50;21.30
20610;DHT22;10463;52.378;9.688;2023-05-10T02:28:11;27.50;21.30
20610;DHT22;10463;52.378;9.688;2023-05-10T02:30:57;27.50;21.30
20610;DHT22;10463;52.378;9.688;2023-05-10T02:33:43;27.50;21.30
20610;DHT22;10463;52.378;9.688;2023-05-10T02:36:29;27.40;21.30
20610;DHT22;10463;52.378;9.688;2023-05-10T02:39:15;27.40;21.30
20610;DHT22;10463;52.378;9.688;2023-05-10T02:42:02;27.40;21.30
20610;DHT22;10463;52.378;9.688;2023-05-10T02:44:50;27.40;21.30
20610;DHT22;10463;52.378;9.688;2023-05-10T02:47:35;27.40;21.30
20610;DHT22;10463;52.378;9.688;2023-05-10T02:50:21;27.40;21.30
20610;DHT22;10463;52.378;9.688;2023-05-10T02:53:11;27.40;21.30
20610;DHT22;10463;52.378;9.688;2023-05-10T02:56:01;27.40;21.30
20610;DHT22;10463;52.378;9.688;2023-05-10T02:58:50;27.40;21.30
20610;DHT22;10463;52.378;9.688;2023-05-10T03:01:34;27.40;21.30
20610;DHT22;10463;52.378;9.688;2023-05-10T03:04:19;27.40;21.30
20610;DHT22;10463;52.378;9.688;2023-05-10T03:07:04;27.30;21.20
20610;DHT22;10463;52.378;9.688;2023-05-10T03:09:49;27.30;21.20
20610;DHT22;10463;52.378;9.688;2023-05-10T03:12:52;27.30;21.20
20610;DHT22;10463;52.378;9.688;2023-05-10T03:15:52;27.30;21.20
20610;DHT22;10463;52.378;9.688;2023-05-10T03:18:44;27.30;21.30
20610;DHT22;10463;52.378;9.688;2023-05-10T03:21:31;27.30;21.30
20610;DHT22;10463;52.378;9.688;2023-05-10T03:24:16;27.30;21.20
20610;DHT22;10463;52.378;9.688;2023-05-10T03:27:06;27.30;21.30
20610;DHT22;10463;52.378;9.688;2023-05-10T03:29:53;27.30;21.30
20610;DHT22;10463;52.378;9.688;2023-05-10T03:32:40;27.30;21.30
20610;DHT22;10463;52.378;9.688;2023-05-10T03:35:25;27.30;21.30
20610;DHT22;10463;52.378;9.688;2023-05-10T03:38:10;27.30;21.30
20610;DHT22;10463;52.378;9.688;2023-05-10T03:40:55;27.30;21.30
20610;DHT22;10463;52.378;9.688;2023-05-10T03:43:40;27.30;21.30
20610;DHT22;10463;52.378;9.688;2023-05-10T03:46:25;27.30;21.30
20610;DHT22;10463;52.378;9.688;2023-05-10T03:49:12;27.20;21.30
20610;DHT22;10463;52.378;9.688;2023-05-10T03:51:56;27.20;21.30
20610;DHT22;10463;52.378;9.688;2023-05-10T03:54:41;27.20;21.30
20610;DHT22;10463;52.378;9.688;2023-05-10T03:57:26;27.20;21.30
20610;DHT22;10463;52.378;9.688;2023-05-10T04:00:12;27.20;21.30
20610;DHT22;10463;52.378;9.688;2023-05-10T04:03:00;27.20;21.30
20610;DHT22;10463;52.378;9.688;2023-05-10T04:05:46;27.20;21.30
20610;DHT22;10463;52.378;9.688;2023-05-10T04:08:31;27.20;21.30
20610;DHT22;10463;52.378;9.688;2023-05-10T04:11:16;27.20;21.30
20610;DHT22;10463;52.378;9.688;2023-05-10T04:14:01;27.20;21.30
20610;DHT22;10463;52.378;9.688;2023-05-10T04:16:46;27.20;21.30
20610;DHT22;10463;52.378;9.688;2023-05-10T04:19:30;27.20;21.30
20610;DHT22;10463;52.378;9.688;2023-05-10T04:22:16;27.20;21.30
20610;DHT22;10463;52.378;9.688;2023-05-10T04:25:02;27.20;21.30
20610;DHT22;10463;52.378;9.688;2023-05-10T04:27:47;27.20;21.30
20610;DHT22;10463;52.378;9.688;2023-05-10T04:30:31;27.20;21.40
20610;DHT22;10463;52.378;9.688;2023-05-10T04:33:16;27.20;21.30
20610;DHT22;10463;52.378;9.688;2023-05-10T04:36:01;27.20;21.40
20610;DHT22;10463;52.378;9.688;2023-05-10T04:38:47;27.20;21.30
20610;DHT22;10463;52.378;9.688;2023-05-10T04:41:31;27.20;21.40
20610;DHT22;10463;52.378;9.688;2023-05-10T04:44:16;27.20;21.40
20610;DHT22;10463;52.378;9.688;2023-05-10T04:47:01;27.20;21.40
20610;DHT22;10463;52.378;9.688;2023-05-10T04:49:46;27.20;21.40
20610;DHT22;10463;52.378;9.688;2023-05-10T04:52:31;27.10;21.30
20610;DHT22;10463;52.378;9.688;2023-05-10T04:55:17;27.10;21.30
20610;DHT22;10463;52.378;9.688;2023-05-10T04:58:02;27.10;21.30
20610;DHT22;10463;52.378;9.688;2023-05-10T05:00:47;27.10;21.30
20610;DHT22;10463;52.378;9.688;2023-05-10T05:03:32;27.10;21.30
20610;DHT22;10463;52.378;9.688;2023-05-10T05:06:17;27.10;21.30
20610;DHT22;10463;52.378;9.688;2023-05-10T05:11:50;27.10;21.30
20610;DHT22;10463;52.378;9.688;2023-05-10T05:14:35;27.10;21.30
20610;DHT22;10463;52.378;9.688;2023-05-10T05:17:20;27.10;21.40
20610;DHT22;10463;52.378;9.688;2023-05-10T05:20:06;27.10;21.40
20610;DHT22;10463;52.378;9.688;2023-05-10T05:22:51;27.10;21.40
20610;DHT22;10463;52.378;9.688;2023-05-10T05:25:36;27.10;21.90
20610;DHT22;10463;52.378;9.688;2023-05-10T05:28:22;27.10;21.40
20610;DHT22;10463;52.378;9.688;2023-05-10T05:31:07;27.10;21.40
20610;DHT22;10463;52.378;9.688;2023-05-10T05:33:52;27.10;21.40
20610;DHT22;10463;52.378;9.688;2023-05-10T05:36:37;27.10;21.40
20610;DHT22;10463;52.378;9.688;2023-05-10T05:39:24;27.10;21.40
20610;DHT22;10463;52.378;9.688;2023-05-10T05:42:09;27.10;21.40
20610;DHT22;10463;52.378;9.688;2023-05-10T05:44:56;27.10;21.40
20610;DHT22;10463;52.378;9.688;2023-05-10T05:47:40;27.10;21.50
20610;DHT22;10463;52.378;9.688;2023-05-10T05:50:25;27.10;21.50
20610;DHT22;10463;52.378;9.688;2023-05-10T05:53:10;27.10;21.50
20610;DHT22;10463;52.378;9.688;2023-05-10T05:55:56;27.00;21.40
20610;DHT22;10463;52.378;9.688;2023-05-10T05:58:42;27.00;21.40
20610;DHT22;10463;52.378;9.688;2023-05-10T06:01:28;27.00;21.40
20610;DHT22;10463;52.378;9.688;2023-05-10T06:04:12;27.00;21.40
20610;DHT22;10463;52.378;9.688;2023-05-10T06:06:57;27.00;21.40
20610;DHT22;10463;52.378;9.688;2023-05-10T06:09:41;27.00;21.50
20610;DHT22;10463;52.378;9.688;2023-05-10T06:12:26;27.00;21.50
20610;DHT22;10463;52.378;9.688;2023-05-10T06:15:11;27.00;21.50
20610;DHT22;10463;52.378;9.688;2023-05-10T06:17:57;27.00;21.50
20610;DHT22;10463;52.378;9.688;2023-05-10T06:20:42;27.00;21.50
20610;DHT22;10463;52.378;9.688;2023-05-10T06:23:27;27.00;21.50
20610;DHT22;10463;52.378;9.688;2023-05-10T06:26:12;27.00;21.50
20610;DHT22;10463;52.378;9.688;2023-05-10T06:28:58;27.00;21.50
20610;DHT22;10463;52.378;9.688;2023-05-10T06:31:42;27.00;21.60
20610;DHT22;10463;52.378;9.688;2023-05-10T06:34:28;27.00;21.50
20610;DHT22;10463;52.378;9.688;2023-05-10T06:37:13;27.00;22.10
20610;DHT22;10463;52.378;9.688;2023-05-10T06:39:58;27.00;21.60
20610;DHT22;10463;52.378;9.688;2023-05-10T06:42:42;27.00;21.60
20610;DHT22;10463;52.378;9.688;2023-05-10T06:45:27;27.00;21.60
20610;DHT22;10463;52.378;9.688;2023-05-10T06:48:12;27.00;21.60
20610;DHT22;10463;52.378;9.688;2023-05-10T06:50:58;27.00;21.70
20610;DHT22;10463;52.378;9.688;2023-05-10T06:53:42;27.00;21.70
20610;DHT22;10463;52.378;9.688;2023-05-10T06:56:27;27.00;21.70
20610;DHT22;10463;52.378;9.688;2023-05-10T06:59:12;27.00;21.70
20610;DHT22;10463;52.378;9.688;2023-05-10T07:01:58;27.00;21.70
20610;DHT22;10463;52.378;9.688;2023-05-10T07:04:42;27.00;21.70
20610;DHT22;10463;52.378;9.688;2023-05-10T07:07:28;27.00;21.70
20610;DHT22;10463;52.378;9.688;2023-05-10T07:10:13;27.00;21.70
20610;DHT22;10463;52.378;9.688;2023-05-10T07:12:58;27.00;21.80
20610;DHT22;10463;52.378;9.688;2023-05-10T07:15:42;27.00;21.80
20610;DHT22;10463;52.378;9.688;2023-05-10T07:18:27;27.00;21.80
20610;DHT22;10463;52.378;9.688;2023-05-10T07:21:11;27.00;21.80
20610;DHT22;10463;52.378;9.688;2023-05-10T07:23:57;27.00;21.80
20610;DHT22;10463;52.378;9.688;2023-05-10T07:26:42;27.00;21.80
20610;DHT22;10463;52.378;9.688;2023-05-10T07:29:27;27.00;21.80
20610;DHT22;10463;52.378;9.688;2023-05-10T07:32:13;27.00;21.80
20610;DHT22;10463;52.378;9.688;2023-05-10T07:34:57;27.00;21.80
20610;DHT22;10463;52.378;9.688;2023-05-10T07:37:42;27.00;21.90
20610;DHT22;10463;52.378;9.688;2023-05-10T07:40:28;27.00;21.90
20610;DHT22;10463;52.378;9.688;2023-05-10T07:43:13;27.00;21.90
20610;DHT22;10463;52.378;9.688;2023-05-10T07:45:58;27.00;21.90
20610;DHT22;10463;52.378;9.688;2023-05-10T07:48:44;27.00;21.90
20610;DHT22;10463;52.378;9.688;2023-05-10T07:51:28;27.00;21.90
20610;DHT22;10463;52.378;9.688;2023-05-10T07:54:14;27.00;21.90
20610;DHT22;10463;52.378;9.688;2023-05-10T07:57:00;27.00;21.90
20610;DHT22;10463;52.378;9.688;2023-05-10T07:59:45;27.00;21.90
20610;DHT22;10463;52.378;9.688;2023-05-10T08:02:30;27.00;21.90
20610;DHT22;10463;52.378;9.688;2023-05-10T08:05:15;27.00;22.00
20610;DHT22;10463;52.378;9.688;2023-05-10T08:08:00;27.00;22.00
20610;DHT22;10463;52.378;9.688;2023-05-10T08:10:44;27.00;22.00
20610;DHT22;10463;52.378;9.688;2023-05-10T08:13:30;27.00;22.00
20610;DHT22;10463;52.378;9.688;2023-05-10T08:16:16;27.00;22.00
20610;DHT22;10463;52.378;9.688;2023-05-10T08:19:01;27.00;22.00
20610;DHT22;10463;52.378;9.688;2023-05-10T08:21:46;26.90;21.90
20610;DHT22;10463;52.378;9.688;2023-05-10T08:24:31;26.90;22.00
20610;DHT22;10463;52.378;9.688;2023-05-10T08:27:16;27.00;22.00
20610;DHT22;10463;52.378;9.688;2023-05-10T08:30:03;27.00;22.00
20610;DHT22;10463;52.378;9.688;2023-05-10T08:32:48;26.90;22.00
20610;DHT22;10463;52.378;9.688;2023-05-10T08:35:32;26.90;22.00
20610;DHT22;10463;52.378;9.688;2023-05-10T08:38:19;27.00;22.10
20610;DHT22;10463;52.378;9.688;2023-05-10T08:41:04;26.90;22.00
20610;DHT22;10463;52.378;9.688;2023-05-10T08:43:50;26.90;22.10
20610;DHT22;10463;52.378;9.688;2023-05-10T08:46:37;26.90;22.10
20610;DHT22;10463;52.378;9.688;2023-05-10T08:49:27;26.90;22.10
20610;DHT22;10463;52.378;9.688;2023-05-10T08:52:16;26.90;22.10
20610;DHT22;10463;52.378;9.688;2023-05-10T08:55:01;26.90;22.10
20610;DHT22;10463;52.378;9.688;2023-05-10T08:57:47;26.90;22.10
20610;DHT22;10463;52.378;9.688;2023-05-10T09:00:32;26.90;22.10
20610;DHT22;10463;52.378;9.688;2023-05-10T09:03:18;26.90;22.20
20610;DHT22;10463;52.378;9.688;2023-05-10T09:06:03;26.90;22.20
20610;DHT22;10463;52.378;9.688;2023-05-10T09:08:48;26.90;22.20
20610;DHT22;10463;52.378;9.688;2023-05-10T09:11:33;26.90;22.20
20610;DHT22;10463;52.378;9.688;2023-05-10T09:14:18;26.90;22.20
20610;DHT22;10463;52.378;9.688;2023-05-10T09:17:04;26.90;22.20
20610;DHT22;10463;52.378;9.688;2023-05-10T09:19:54;26.90;22.20
20610;DHT22;10463;52.378;9.688;2023-05-10T09:22:41;26.90;22.20
20610;DHT22;10463;52.378;9.688;2023-05-10T09:25:26;26.90;22.20
20610;DHT22;10463;52.378;9.688;2023-05-10T09:28:11;26.90;22.30
20610;DHT22;10463;52.378;9.688;2023-05-10T09:30:56;26.90;22.30
20610;DHT22;10463;52.378;9.688;2023-05-10T09:33:44;26.90;22.30
20610;DHT22;10463;52.378;9.688;2023-05-10T09:36:30;26.90;22.30
20610;DHT22;10463;52.378;9.688;2023-05-10T09:39:15;26.90;22.30
20610;DHT22;10463;52.378;9.688;2023-05-10T09:42:03;26.90;22.30
20610;DHT22;10463;52.378;9.688;2023-05-10T09:44:48;26.90;22.30
20610;DHT22;10463;52.378;9.688;2023-05-10T09:47:33;26.90;22.30
20610;DHT22;10463;52.378;9.688;2023-05-10T09:50:19;26.90;22.30
20610;DHT22;10463;52.378;9.688;2023-05-10T09:53:06;26.90;22.30
20610;DHT22;10463;52.378;9.688;2023-05-10T09:55:51;26.90;22.90
20610;DHT22;10463;52.378;9.688;2023-05-10T09:58:37;26.90;22.40
20610;DHT22;10463;52.378;9.688;2023-05-10T10:01:26;26.90;22.40
20610;DHT22;10463;52.378;9.688;2023-05-10T10:04:11;26.90;22.40
20610;DHT22;10463;52.378;9.688;2023-05-10T10:07:00;26.90;22.40
20610;DHT22;10463;52.378;9.688;2023-05-10T10:09:47;26.90;22.40
20610;DHT22;10463;52.378;9.688;2023-05-10T10:12:32;26.90;22.40
20610;DHT22;10463;52.378;9.688;2023-05-10T10:15:17;26.90;22.90
20610;DHT22;10463;52.378;9.688;2023-05-10T10:18:03;26.90;22.40
20610;DHT22;10463;52.378;9.688;2023-05-10T10:20:49;26.90;22.40
20610;DHT22;10463;52.378;9.688;2023-05-10T10:23:35;26.90;22.40
20610;DHT22;10463;52.378;9.688;2023-05-10T10:26:21;26.90;22.40
20610;DHT22;10463;52.378;9.688;2023-05-10T10:29:19;26.90;22.50
20610;DHT22;10463;52.378;9.688;2023-05-10T10:32:18;26.90;22.50
20610;DHT22;10463;52.378;9.688;2023-05-10T10:35:04;26.90;22.50
20610;DHT22;10463;52.378;9.688;2023-05-10T10:37:51;26.90;22.50
20610;DHT22;10463;52.378;9.688;2023-05-10T10:40:36;26.90;22.50
20610;DHT22;10463;52.378;9.688;2023-05-10T10:43:26;26.90;22.50
20610;DHT22;10463;52.378;9.688;2023-05-10T10:46:14;26.90;22.50
20610;DHT22;10463;52.378;9.688;2023-05-10T10:49:09;26.90;22.50
20610;DHT22;10463;52.378;9.688;2023-05-10T10:52:15;26.90;22.50
20610;DHT22;10463;52.378;9.688;2023-05-10T10:55:06;26.90;22.50
20610;DHT22;10463;52.378;9.688;2023-05-10T10:57:54;26.90;22.50
20610;DHT22;10463;52.378;9.688;2023-05-10T11:00:46;26.90;22.50
20610;DHT22;10463;52.378;9.688;2023-05-10T11:03:31;26.90;22.50
20610;DHT22;10463;52.378;9.688;2023-05-10T11:06:28;26.90;22.50
20610;DHT22;10463;52.378;9.688;2023-05-10T11:09:13;26.90;22.60
20610;DHT22;10463;52.378;9.688;2023-05-10T11:11:58;26.90;22.60
20610;DHT22;10463;52.378;9.688;2023-05-10T11:14:49;26.90;22.60
20610;DHT22;10463;52.378;9.688;2023-05-10T11:17:36;26.90;22.60
20610;DHT22;10463;52.378;9.688;2023-05-10T11:20:22;26.90;23.10
20610;DHT22;10463;52.378;9.688;2023-05-10T11:23:14;26.90;22.60
20610;DHT22;10463;52.378;9.688;2023-05-10T11:26:00;26.90;22.60
20610;DHT22;10463;52.378;9.688;2023-05-10T11:28:48;26.90;23.20
20610;DHT22;10463;52.378;9.688;2023-05-10T11:31:33;26.90;22.60
20610;DHT22;10463;52.378;9.688;2023-05-10T11:34:26;26.90;22.70
20610;DHT22;10463;52.378;9.688;2023-05-10T11:37:11;26.90;22.70
20610;DHT22;10463;52.378;9.688;2023-05-10T11:39:56;27.00;22.70
20610;DHT22;10463;52.378;9.688;2023-05-10T11:42:41;26.90;22.70
20610;DHT22;10463;52.378;9.688;2023-05-10T11:45:25;27.00;22.70
20610;DHT22;10463;52.378;9.688;2023-05-10T11:48:10;27.00;22.80
20610;DHT22;10463;52.378;9.688;2023-05-10T11:50:56;27.00;22.80
20610;DHT22;10463;52.378;9.688;2023-05-10T11:53:42;27.00;22.80
20610;DHT22;10463;52.378;9.688;2023-05-10T11:56:26;27.00;22.80
20610;DHT22;10463;52.378;9.688;2023-05-10T11:59:14;27.00;22.80
20610;DHT22;10463;52.378;9.688;2023-05-10T12:01:59;27.00;22.90
20610;DHT22;10463;52.378;9.688;2023-05-10T12:04:44;26.90;22.80
20610;DHT22;10463;52.378;9.688;2023-05-10T12:07:30;27.00;22.90
20610;DHT22;10463;52.378;9.688;2023-05-10T12:10:15;27.00;22.90
20610;DHT22;10463;52.378;9.688;2023-05-10T12:13:01;27.00;22.90
20610;DHT22;10463;52.378;9.688;2023-05-10T12:15:47;27.00;22.90
20610;DHT22;10463;52.378;9.688;2023-05-10T12:18:32;27.00;22.90
20610;DHT22;10463;52.378;9.688;2023-05-10T12:21:18;27.00;22.90
20610;DHT22;10463;52.378;9.688;2023-05-10T12:24:05;27.00;22.90
20610;DHT22;10463;52.378;9.688;2023-05-10T12:26:50;27.00;22.90
20610;DHT22;10463;52.378;9.688;2023-05-10T12:29:35;27.00;22.90
20610;DHT22;10463;52.378;9.688;2023-05-10T12:32:20;27.00;22.90
20610;DHT22;10463;52.378;9.688;2023-05-10T12:35:05;27.00;22.90
20610;DHT22;10463;52.378;9.688;2023-05-10T12:37:51;27.00;23.00
20610;DHT22;10463;52.378;9.688;2023-05-10T12:40:37;27.10;23.00
20610;DHT22;10463;52.378;9.688;2023-05-10T12:43:22;27.10;23.00
20610;DHT22;10463;52.378;9.688;2023-05-10T12:46:08;27.10;23.00
20610;DHT22;10463;52.378;9.688;2023-05-10T12:48:53;27.10;23.00
20610;DHT22;10463;52.378;9.688;2023-05-10T12:51:39;27.10;23.00
20610;DHT22;10463;52.378;9.688;2023-05-10T12:54:24;27.10;23.00
20610;DHT22;10463;52.378;9.688;2023-05-10T12:57:10;27.10;23.00
20610;DHT22;10463;52.378;9.688;2023-05-10T12:59:55;27.10;23.00
20610;DHT22;10463;52.378;9.688;2023-05-10T13:02:40;27.10;23.00
20610;DHT22;10463;52.378;9.688;2023-05-10T13:05:24;27.20;23.10
20610;DHT22;10463;52.378;9.688;2023-05-10T13:08:09;27.10;23.00
20610;DHT22;10463;52.378;9.688;2023-05-10T13:10:54;27.20;23.20
20610;DHT22;10463;52.378;9.688;2023-05-10T13:13:40;27.20;23.10
20610;DHT22;10463;52.378;9.688;2023-05-10T13:16:25;27.20;23.10
20610;DHT22;10463;52.378;9.688;2023-05-10T13:19:10;27.20;23.10
20610;DHT22;10463;52.378;9.688;2023-05-10T13:21:56;27.20;23.20
20610;DHT22;10463;52.378;9.688;2023-05-10T13:24:40;27.20;23.10
20610;DHT22;10463;52.378;9.688;2023-05-10T13:27:25;27.20;23.20
20610;DHT22;10463;52.378;9.688;2023-05-10T13:30:12;27.20;23.20
20610;DHT22;10463;52.378;9.688;2023-05-10T13:32:57;27.20;23.30
20610;DHT22;10463;52.378;9.688;2023-05-10T13:35:41;27.20;23.40
20610;DHT22;10463;52.378;9.688;2023-05-10T13:38:26;27.20;23.40
20610;DHT22;10463;52.378;9.688;2023-05-10T13:41:11;27.20;23.40
20610;DHT22;10463;52.378;9.688;2023-05-10T13:43:55;27.30;23.50
20610;DHT22;10463;52.378;9.688;2023-05-10T13:46:41;27.30;23.50
20610;DHT22;10463;52.378;9.688;2023-05-10T13:49:26;27.30;23.50
20610;DHT22;10463;52.378;9.688;2023-05-10T13:52:11;27.30;23.50
20610;DHT22;10463;52.378;9.688;2023-05-10T13:54:56;27.30;23.50
20610;DHT22;10463;52.378;9.688;2023-05-10T13:57:41;27.30;23.50
20610;DHT22;10463;52.378;9.688;2023-05-10T14:00:27;27.30;23.50
20610;DHT22;10463;52.378;9.688;2023-05-10T14:03:13;27.30;23.50
20610;DHT22;10463;52.378;9.688;2023-05-10T14:05:58;27.40;23.50
20610;DHT22;10463;52.378;9.688;2023-05-10T14:08:43;27.40;23.50
20610;DHT22;10463;52.378;9.688;2023-05-10T14:11:28;27.40;23.50
20610;DHT22;10463;52.378;9.688;2023-05-10T14:14:13;27.40;23.50
20610;DHT22;10463;52.378;9.688;2023-05-10T14:16:58;27.40;23.50
20610;DHT22;10463;52.378;9.688;2023-05-10T14:19:45;27.40;23.50
20610;DHT22;10463;52.378;9.688;2023-05-10T14:22:30;27.40;23.60
20610;DHT22;10463;52.378;9.688;2023-05-10T14:25:15;27.40;23.60
20610;DHT22;10463;52.378;9.688;2023-05-10T14:27:59;27.40;23.60
20610;DHT22;10463;52.378;9.688;2023-05-10T14:30:44;27.40;23.70
20610;DHT22;10463;52.378;9.688;2023-05-10T14:33:29;27.50;23.80
20610;DHT22;10463;52.378;9.688;2023-05-10T14:36:15;27.40;23.80
20610;DHT22;10463;52.378;9.688;2023-05-10T14:39:00;27.50;23.90
20610;DHT22;10463;52.378;9.688;2023-05-10T14:41:44;27.50;23.90
20610;DHT22;10463;52.378;9.688;2023-05-10T14:44:30;27.50;24.00
20610;DHT22;10463;52.378;9.688;2023-05-10T14:47:15;27.50;24.00
20610;DHT22;10463;52.378;9.688;2023-05-10T14:49:59;27.50;24.00
20610;DHT22;10463;52.378;9.688;2023-05-10T14:52:46;27.50;24.00
20610;DHT22;10463;52.378;9.688;2023-05-10T14:55:31;27.50;24.00
20610;DHT22;10463;52.378;9.688;2023-05-10T14:58:16;27.50;24.00
20610;DHT22;10463;52.378;9.688;2023-05-10T15:01:01;27.50;24.00
20610;DHT22;10463;52.378;9.688;2023-05-10T15:03:46;27.50;24.00
20610;DHT22;10463;52.378;9.688;2023-05-10T15:06:32;27.50;24.00
20610;DHT22;10463;52.378;9.688;2023-05-10T15:09:18;27.50;24.00
20610;DHT22;10463;52.378;9.688;2023-05-10T15:12:03;27.50;24.00
20610;DHT22;10463;52.378;9.688;2023-05-10T15:14:47;27.50;24.00
20610;DHT22;10463;52.378;9.688;2023-05-10T15:17:32;27.50;24.00
20610;DHT22;10463;52.378;9.688;2023-05-10T15:20:17;27.50;24.00
20610;DHT22;10463;52.378;9.688;2023-05-10T15:23:02;27.50;24.20
20610;DHT22;10463;52.378;9.688;2023-05-10T15:25:48;27.50;24.00
20610;DHT22;10463;52.378;9.688;2023-05-10T15:28:34;27.50;24.00
20610;DHT22;10463;52.378;9.688;2023-05-10T15:31:19;27.50;24.00
20610;DHT22;10463;52.378;9.688;2023-05-10T15:34:03;27.60;24.10
20610;DHT22;10463;52.378;9.688;2023-05-10T15:36:48;27.50;24.00
20610;DHT22;10463;52.378;9.688;2023-05-10T15:39:33;27.50;24.00
20610;DHT22;10463;52.378;9.688;2023-05-10T15:42:18;27.60;24.10
20610;DHT22;10463;52.378;9.688;2023-05-10T15:45:04;27.60;24.10
20610;DHT22;10463;52.378;9.688;2023-05-10T15:47:49;27.60;24.10
20610;DHT22;10463;52.378;9.688;2023-05-10T15:50:33;27.60;24.10
20610;DHT22;10463;52.378;9.688;2023-05-10T15:53:18;27.60;24.10
20610;DHT22;10463;52.378;9.688;2023-05-10T15:56:03;27.60;24.10
20610;DHT22;10463;52.378;9.688;2023-05-10T15:58:49;27.60;24.10
20610;DHT22;10463;52.378;9.688;2023-05-10T16:01:35;27.60;24.10
20610;DHT22;10463;52.378;9.688;2023-05-10T16:04:20;27.60;24.10
20610;DHT22;10463;52.378;9.688;2023-05-10T16:07:05;27.60;24.10
20610;DHT22;10463;52.378;9.688;2023-05-10T16:09:49;27.60;24.10
20610;DHT22;10463;52.378;9.688;2023-05-10T16:12:34;27.60;24.10
20610;DHT22;10463;52.378;9.688;2023-05-10T16:15:20;27.60;24.10
20610;DHT22;10463;52.378;9.688;2023-05-10T16:18:06;27.60;24.20
20610;DHT22;10463;52.378;9.688;2023-05-10T16:20:51;27.60;24.10
20610;DHT22;10463;52.378;9.688;2023-05-10T16:23:36;27.60;24.20
20610;DHT22;10463;52.378;9.688;2023-05-10T16:26:21;27.60;24.10
20610;DHT22;10463;52.378;9.688;2023-05-10T16:29:05;27.60;24.10
20610;DHT22;10463;52.378;9.688;2023-05-10T16:31:52;27.60;24.20
20610;DHT22;10463;52.378;9.688;2023-05-10T16:34:37;27.60;24.20
20610;DHT22;10463;52.378;9.688;2023-05-10T16:37:22;27.60;24.10
20610;DHT22;10463;52.378;9.688;2023-05-10T16:40:08;27.60;24.20
20610;DHT22;10463;52.378;9.688;2023-05-10T16:42:53;27.60;24.20
20610;DHT22;10463;52.378;9.688;2023-05-10T16:45:38;27.60;24.20
20610;DHT22;10463;52.378;9.688;2023-05-10T16:48:24;27.60;24.20
20610;DHT22;10463;52.378;9.688;2023-05-10T16:51:09;27.60;24.20
20610;DHT22;10463;52.378;9.688;2023-05-10T16:53:54;27.60;24.20
20610;DHT22;10463;52.378;9.688;2023-05-10T16:56:39;27.60;24.20
20610;DHT22;10463;52.378;9.688;2023-05-10T16:59:24;27.60;24.20
20610;DHT22;10463;52.378;9.688;2023-05-10T17:02:08;27.60;24.20
20610;DHT22;10463;52.378;9.688;2023-05-10T17:04:55;27.60;24.20
20610;DHT22;10463;52.378;9.688;2023-05-10T17:07:40;27.70;24.30
20610;DHT22;10463;52.378;9.688;2023-05-10T17:10:25;27.70;24.30
20610;DHT22;10463;52.378;9.688;2023-05-10T17:13:09;27.70;24.30
20610;DHT22;10463;52.378;9.688;2023-05-10T17:15:54;27.70;24.80
20610;DHT22;10463;52.378;9.688;2023-05-10T17:18:40;27.70;24.30
20610;DHT22;10463;52.378;9.688;2023-05-10T17:21:27;27.60;24.20
20610;DHT22;10463;52.378;9.688;2023-05-10T17:24:12;27.70;24.30
20610;DHT22;10463;52.378;9.688;2023-05-10T17:26:57;27.60;24.20
20610;DHT22;10463;52.378;9.688;2023-05-10T17:29:43;27.70;24.30
20610;DHT22;10463;52.378;9.688;2023-05-10T17:32:28;27.70;24.30